Time;durP1;ratioP1;P1;durP2;ratioP2;P2;SDS_P1;SDS_P2;PMS_P1;PMS_P2;Temp;Humidity;BMP_temperature;BMP_pressure;BME280_temperature;BME280_humidity;BME280_pressure;Samples;Min_cycle;Max_cycle;Signal;HPM_P1;HPM_P2
2022/08/11 00:00:12;;;;;;;1.40;0.55;;;20.90;63.60;;;;;;5056727;28;20040;-86
2022/08/11 00:03:04;;;;;;;2.05;0.40;;;20.90;63.80;;;;;;5058445;28;20036;-86
2022/08/11 00:05:33;;;;;;;2.42;0.50;;;20.90;63.80;;;;;;5068131;28;20044;-86
2022/08/11 00:08:03;;;;;;;1.00;0.40;;;20.80;63.60;;;;;;5056823;28;20071;-87
2022/08/11 00:10:31;;;;;;;1.50;0.55;;;20.90;63.70;;;;;;5067156;28;20131;-87
2022/08/11 00:13:01;;;;;;;1.65;0.50;;;20.90;64.00;;;;;;5041385;28;20139;-86
2022/08/11 00:15:45;;;;;;;0.88;0.30;;;20.90;63.70;;;;;;5038271;28;20056;-86
2022/08/11 00:18:16;;;;;;;1.92;0.50;;;20.90;63.60;;;;;;5048967;28;20044;-85
2022/08/11 00:20:44;;;;;;;3.38;0.30;;;20.90;63.70;;;;;;5068511;28;20041;-86
2022/08/11 00:23:16;;;;;;;1.63;0.60;;;20.90;64.20;;;;;;5060625;28;20042;-86
2022/08/11 00:25:50;;;;;;;0.60;0.30;;;20.90;63.90;;;;;;5064472;28;20098;-86
2022/08/11 00:28:33;;;;;;;1.30;0.30;;;20.80;63.80;;;;;;5066922;28;20036;-86
2022/08/11 00:31:06;;;;;;;1.20;0.50;;;20.80;64.20;;;;;;5062029;28;21934;-84
2022/08/11 00:33:43;;;;;;;3.10;0.52;;;20.80;64.50;;;;;;5065587;28;20045;-87
2022/08/11 00:36:15;;;;;;;0.60;0.20;;;20.90;65.70;;;;;;5050862;28;20135;-86
2022/08/11 00:38:50;;;;;;;1.17;0.30;;;20.90;65.20;;;;;;5056029;28;20134;-86
2022/08/11 00:41:44;;;;;;;1.00;0.30;;;20.80;64.60;;;;;;5047407;28;20109;-86
2022/08/11 00:44:39;;;;;;;1.98;0.40;;;20.70;64.50;;;;;;5059178;28;20051;-85
2022/08/11 00:47:14;;;;;;;1.75;0.30;;;20.80;65.80;;;;;;5070168;28;20070;-86
2022/08/11 00:50:19;;;;;;;1.65;0.40;;;20.70;66.00;;;;;;5057404;28;20091;-86
2022/08/11 00:52:52;;;;;;;1.08;0.35;;;20.70;66.20;;;;;;5058893;28;20044;-85
2022/08/11 00:55:57;;;;;;;2.15;0.30;;;20.70;66.70;;;;;;5071145;28;20055;-85
2022/08/11 00:58:49;;;;;;;2.13;0.65;;;20.70;65.80;;;;;;5068803;28;20051;-88
2022/08/11 01:01:21;;;;;;;1.58;0.30;;;20.60;65.50;;;;;;5057686;28;20143;-86
2022/08/11 01:04:16;;;;;;;0.85;0.38;;;20.60;65.50;;;;;;5070922;28;20044;-86
2022/08/11 01:06:50;;;;;;;2.83;0.50;;;20.60;66.30;;;;;;5073739;28;20068;-86
2022/08/11 01:09:36;;;;;;;2.20;0.32;;;20.60;67.30;;;;;;5045512;28;20048;-86
2022/08/11 01:12:16;;;;;;;1.15;0.47;;;20.50;67.90;;;;;;5087315;28;20041;-86
2022/08/11 01:15:11;;;;;;;0.50;0.20;;;20.50;67.20;;;;;;5079665;28;20131;-86
2022/08/11 01:18:08;;;;;;;1.17;0.40;;;20.40;67.50;;;;;;5023253;28;20174;-86
2022/08/11 01:21:16;;;;;;;0.93;0.50;;;20.40;67.70;;;;;;5041534;28;20040;-86
2022/08/11 01:24:22;;;;;;;1.88;0.45;;;20.30;68.40;;;;;;5073295;28;20129;-86
2022/08/11 01:27:12;;;;;;;4.10;0.52;;;20.30;68.30;;;;;;5069657;28;20060;-86
2022/08/11 01:30:23;;;;;;;3.13;0.60;;;20.20;68.70;;;;;;5041210;28;20568;-88
2022/08/11 01:33:13;;;;;;;1.30;0.40;;;20.20;69.30;;;;;;5038733;28;20040;-87
2022/08/11 01:36:12;;;;;;;2.75;0.52;;;20.20;69.00;;;;;;5059695;28;20044;-88
2022/08/11 01:39:00;;;;;;;1.52;0.50;;;20.20;68.70;;;;;;5026301;28;20047;-87
2022/08/11 01:45:05;;;;;;;3.78;0.57;;;20.10;68.70;;;;;;5071982;28;20089;-87
2022/08/11 01:48:07;;;;;;;1.65;0.40;;;20.10;68.90;;;;;;5047571;28;20052;-87
2022/08/11 01:50:45;;;;;;;1.50;0.40;;;20.10;70.00;;;;;;5065686;28;20086;-87
2022/08/11 01:53:35;;;;;;;1.55;0.50;;;20.00;68.70;;;;;;5059013;28;20049;-87
2022/08/11 01:56:09;;;;;;;2.03;0.40;;;20.00;68.50;;;;;;5034901;28;20141;-87
2022/08/11 01:59:09;;;;;;;2.15;0.40;;;20.00;68.60;;;;;;5065227;28;20044;-86
2022/08/11 02:02:03;;;;;;;0.80;0.40;;;19.90;68.70;;;;;;5058757;28;20058;-87
2022/08/11 02:04:49;;;;;;;1.35;0.50;;;19.90;68.90;;;;;;5061305;28;20131;-88
2022/08/11 02:07:37;;;;;;;1.10;0.60;;;19.80;69.20;;;;;;5053328;28;20049;-87
2022/08/11 02:13:33;;;;;;;1.63;0.50;;;19.90;69.40;;;;;;5089780;28;20048;-89
2022/08/11 02:16:32;;;;;;;2.90;0.55;;;20.00;68.90;;;;;;5035931;28;20041;-88
2022/08/11 02:25:42;;;;;;;2.05;0.57;;;20.00;68.90;;;;;;5050748;28;20048;-89
2022/08/11 02:28:28;;;;;;;1.33;0.40;;;19.80;69.50;;;;;;5060376;28;20094;-87
2022/08/11 02:34:23;;;;;;;;;;;19.60;70.10;;;;;;5068436;28;20051;-88
2022/08/11 02:37:18;;;;;;;1.17;0.30;;;19.60;70.30;;;;;;5058830;28;19956;-89
2022/08/11 02:39:58;;;;;;;2.85;0.45;;;19.60;70.50;;;;;;5059344;28;20488;-86
2022/08/11 02:42:38;;;;;;;1.00;0.30;;;19.50;70.80;;;;;;5078323;28;20045;-87
2022/08/11 02:45:31;;;;;;;1.02;0.45;;;19.40;71.30;;;;;;5050681;28;20053;-87
2022/08/11 02:51:13;;;;;;;0.75;0.40;;;19.50;71.00;;;;;;5052834;28;20041;-89
2022/08/11 02:54:08;;;;;;;0.82;0.40;;;19.60;71.00;;;;;;5052398;28;20048;-88
2022/08/11 02:56:43;;;;;;;0.57;0.20;;;19.60;71.00;;;;;;5070426;28;20060;-88
2022/08/11 03:02:47;;;;;;;2.25;0.40;;;19.40;71.60;;;;;;5057273;28;20131;-89
2022/08/11 03:05:22;;;;;;;1.65;0.40;;;19.70;71.00;;;;;;5076747;28;20044;-89
2022/08/11 03:07:56;;;;;;;1.05;0.50;;;19.50;71.10;;;;;;5068083;28;20687;-87
2022/08/11 03:17:20;;;;;;;2.53;0.68;;;19.60;71.40;;;;;;5074480;28;20048;-89
2022/08/11 03:20:12;;;;;;;0.98;0.30;;;19.60;71.30;;;;;;5046819;28;20045;-88
2022/08/11 03:22:51;;;;;;;1.20;0.30;;;19.70;71.30;;;;;;5065607;28;20041;-89
2022/08/11 03:25:34;;;;;;;0.82;0.30;;;19.60;71.20;;;;;;5038074;28;20499;-87
2022/08/11 03:28:17;;;;;;;0.95;0.30;;;19.70;71.10;;;;;;5064657;28;20051;-88
2022/08/11 03:31:14;;;;;;;2.00;0.30;;;19.70;71.10;;;;;;5048877;28;20048;-87
2022/08/11 03:34:01;;;;;;;3.55;0.50;;;19.70;71.00;;;;;;5017698;28;20454;-88
2022/08/11 03:40:07;;;;;;;0.82;0.40;;;19.70;71.20;;;;;;5050785;28;20049;-89
2022/08/11 03:43:16;;;;;;;1.30;0.50;;;19.70;71.30;;;;;;5058181;28;20050;-88
2022/08/11 03:46:19;;;;;;;2.42;0.43;;;19.40;71.90;;;;;;4972341;28;20055;-90
2022/08/11 03:49:22;;;;;;;1.35;0.40;;;19.10;72.80;;;;;;5053405;28;20450;-90
2022/08/11 03:52:26;;;;;;;1.35;0.40;;;19.10;73.30;;;;;;5030592;28;20452;-89
2022/08/11 03:55:20;;;;;;;2.28;0.30;;;19.10;73.40;;;;;;5030605;28;20424;-89
2022/08/11 03:58:08;;;;;;;1.05;0.30;;;19.10;73.60;;;;;;5016976;28;20127;-90
2022/08/11 04:01:03;;;;;;;1.05;0.45;;;19.10;74.00;;;;;;5045985;28;20453;-89
2022/08/11 04:03:52;;;;;;;1.20;0.88;;;19.20;73.90;;;;;;5047467;28;20131;-88
2022/08/11 04:06:38;;;;;;;2.22;0.43;;;19.30;73.60;;;;;;5039635;28;20560;-88
2022/08/11 04:09:36;;;;;;;1.02;0.30;;;19.30;73.20;;;;;;5030441;28;20099;-88
2022/08/11 04:12:32;;;;;;;0.80;0.38;;;19.40;73.00;;;;;;5045342;28;20116;-89
2022/08/11 04:16:12;;;;;;;1.33;0.63;;;19.30;73.00;;;;;;5000987;28;20058;-88
2022/08/11 04:18:48;;;;;;;2.03;0.30;;;19.30;73.50;;;;;;5017978;28;20054;-90
2022/08/11 04:21:33;;;;;;;1.95;0.30;;;19.20;74.00;;;;;;5028990;28;20059;-88
2022/08/11 04:24:08;;;;;;;2.20;0.63;;;19.20;74.30;;;;;;5037599;28;20058;-89
2022/08/11 04:27:14;;;;;;;0.75;0.30;;;19.30;74.10;;;;;;5043290;28;20481;-87
2022/08/11 04:30:40;;;;;;;1.52;0.40;;;19.50;73.80;;;;;;5052682;28;20481;-87
2022/08/11 04:33:35;;;;;;;1.80;0.63;;;19.60;73.60;;;;;;5036502;28;20657;-87
2022/08/11 04:37:31;;;;;;;2.05;0.70;;;19.50;73.80;;;;;;5053970;28;20489;-86
2022/08/11 04:39:26;;;;;;;2.00;0.73;;;19.40;73.20;;;;;;5048513;28;20045;-88
2022/08/11 04:45:27;;;;;;;2.25;0.50;;;19.60;73.00;;;;;;5062749;28;20068;-88
2022/08/11 05:07:38;;;;;;;2.13;0.55;;;19.90;71.70;;;;;;5041457;28;20041;-92
2022/08/11 05:10:17;;;;;;;2.30;0.40;;;20.00;71.30;;;;;;5046600;28;20037;-88
2022/08/11 05:12:50;;;;;;;2.65;0.77;;;20.10;71.40;;;;;;5056053;28;20572;-88
2022/08/11 05:36:16;;;;;;;0.88;0.38;;;21.00;67.80;;;;;;5075156;28;20162;-84
2022/08/11 05:58:39;;;;;;;2.85;0.38;;;22.20;65.10;;;;;;5066453;28;20045;-88
2022/08/11 06:01:20;;;;;;;1.55;0.20;;;22.30;64.00;;;;;;5079332;28;20493;-86
2022/08/11 06:06:42;;;;;;;2.03;0.65;;;22.60;63.80;;;;;;5056473;28;20067;-84
2022/08/11 06:09:13;;;;;;;1.08;0.30;;;22.50;62.90;;;;;;5051268;28;20052;-85
2022/08/11 06:11:41;;;;;;;1.38;0.30;;;22.70;63.00;;;;;;5032117;28;20095;-86
2022/08/11 06:14:14;;;;;;;6.95;0.85;;;22.80;62.50;;;;;;5071782;28;20110;-87
2022/08/11 06:16:46;;;;;;;2.10;0.40;;;23.00;62.50;;;;;;5073275;28;20055;-86
2022/08/11 06:19:14;;;;;;;0.98;0.30;;;22.60;61.90;;;;;;5081483;28;20055;-86
2022/08/11 06:21:47;;;;;;;1.98;0.38;;;22.30;63.20;;;;;;5072045;28;20036;-86
2022/08/11 06:24:15;;;;;;;1.95;0.40;;;22.70;62.50;;;;;;5038602;28;20080;-87
2022/08/11 06:26:53;;;;;;;0.70;0.30;;;23.10;62.50;;;;;;5071455;28;20580;-85
2022/08/11 06:29:47;;;;;;;1.83;0.40;;;23.00;61.10;;;;;;5040738;28;20128;-84
2022/08/11 06:32:31;;;;;;;6.22;1.15;;;23.10;61.50;;;;;;5059157;28;20118;-87
2022/08/11 06:35:08;;;;;;;3.58;0.40;;;23.10;60.90;;;;;;5066700;28;20056;-87
2022/08/11 06:38:00;;;;;;;4.47;0.40;;;23.50;61.40;;;;;;5052984;28;20049;-84
2022/08/11 06:43:53;;;;;;;2.25;0.40;;;23.80;59.10;;;;;;5061552;28;20494;-87
2022/08/11 06:46:38;;;;;;;2.60;0.32;;;23.10;59.90;;;;;;5054112;28;20047;-85
2022/08/11 06:52:05;;;;;;;1.98;0.20;;;23.20;60.60;;;;;;5051223;28;20056;-85
2022/08/11 06:54:56;;;;;;;5.30;1.02;;;23.80;60.40;;;;;;5052588;28;20713;-85
2022/08/11 07:00:28;;;;;;;2.20;0.20;;;23.90;58.80;;;;;;5068251;28;20045;-86
2022/08/11 07:03:10;;;;;;;2.10;0.30;;;24.30;58.10;;;;;;5051284;28;20047;-84
2022/08/11 07:05:54;;;;;;;1.70;0.22;;;24.50;57.80;;;;;;5069963;28;20118;-86
2022/08/11 07:30:28;;;;;;;0.80;0.22;;;25.30;56.30;;;;;;5068310;28;20044;-82
2022/08/11 07:33:01;;;;;;;1.02;0.30;;;25.40;55.30;;;;;;5036164;28;20068;-83
2022/08/11 07:35:58;;;;;;;5.03;0.30;;;25.40;54.70;;;;;;5044058;28;20056;-82
2022/08/11 07:38:44;;;;;;;3.10;0.30;;;25.50;55.30;;;;;;5050064;28;20043;-86
2022/08/11 07:41:15;;;;;;;1.45;0.32;;;25.50;53.80;;;;;;5068043;28;20641;-83
2022/08/11 07:43:47;;;;;;;2.05;0.20;;;25.40;54.90;;;;;;5054366;28;20044;-80
2022/08/11 07:54:40;;;;;;;0.43;0.20;;;25.50;52.80;;;;;;5059490;28;20036;-83
2022/08/11 08:20:13;;;;;;;1.92;0.20;;;26.40;52.10;;;;;;5049055;28;20774;-84
2022/08/11 08:22:41;;;;;;;2.33;0.40;;;26.40;51.00;;;;;;5064961;28;20080;-83
2022/08/11 08:25:14;;;;;;;1.10;0.30;;;26.20;51.80;;;;;;5042288;28;20564;-85
2022/08/11 08:27:44;;;;;;;1.90;0.30;;;26.30;52.30;;;;;;5033880;28;20052;-83
2022/08/11 08:32:59;;;;;;;0.95;0.30;;;26.40;52.30;;;;;;5060585;28;20743;-83
2022/08/11 08:35:29;;;;;;;1.23;0.30;;;26.40;51.30;;;;;;5062663;28;20059;-87
2022/08/11 08:37:59;;;;;;;5.68;0.93;;;26.50;51.30;;;;;;5047452;28;20196;-85
2022/08/11 08:40:27;;;;;;;3.50;0.63;;;26.50;52.20;;;;;;5063066;28;20419;-84
2022/08/11 08:42:58;;;;;;;3.38;0.20;;;26.00;51.20;;;;;;5053014;28;20071;-84
2022/08/11 08:45:26;;;;;;;2.20;0.52;;;25.80;51.80;;;;;;5069689;28;20052;-83
2022/08/11 08:48:07;;;;;;;0.57;0.20;;;26.20;51.50;;;;;;5049915;28;20048;-85
2022/08/11 08:53:33;;;;;;;1.00;0.30;;;26.40;50.20;;;;;;5088116;28;20673;-85
2022/08/11 08:56:01;;;;;;;0.98;0.22;;;26.40;50.90;;;;;;5029948;28;20083;-86
2022/08/11 08:58:31;;;;;;;1.95;0.20;;;26.50;50.30;;;;;;5031425;28;20049;-84
2022/08/11 09:00:59;;;;;;;1.02;0.20;;;26.70;49.20;;;;;;5075642;28;20489;-84
2022/08/11 09:03:27;;;;;;;1.35;0.20;;;26.70;48.40;;;;;;5076157;28;20041;-82
2022/08/11 09:06:16;;;;;;;1.50;0.35;;;26.80;48.50;;;;;;5050859;28;20122;-86
2022/08/11 09:08:44;;;;;;;0.40;0.10;;;27.10;48.60;;;;;;5046871;28;20045;-86
2022/08/11 09:14:02;;;;;;;0.52;0.10;;;26.50;48.50;;;;;;5051604;28;20441;-85
2022/08/11 09:16:34;;;;;;;0.68;0.20;;;26.60;47.20;;;;;;5046842;28;20052;-80
2022/08/11 09:19:02;;;;;;;0.45;0.10;;;26.90;47.70;;;;;;5050461;28;20548;-81
2022/08/11 09:21:31;;;;;;;0.63;0.10;;;27.30;46.50;;;;;;5031639;28;20404;-86
2022/08/11 09:27:07;;;;;;;1.08;0.10;;;27.10;45.40;;;;;;5053535;28;20063;-82
2022/08/11 09:29:36;;;;;;;0.17;0.00;;;27.40;45.60;;;;;;5051554;28;20047;-84
2022/08/11 09:32:05;;;;;;;2.78;0.47;;;27.40;44.60;;;;;;5038801;28;20041;-81
2022/08/11 09:34:35;;;;;;;1.35;0.20;;;27.20;44.90;;;;;;5047868;28;20156;-84
2022/08/11 09:40:28;;;;;;;3.00;0.10;;;27.20;46.40;;;;;;5046714;28;20115;-81
2022/08/11 09:46:05;;;;;;;0.38;0.10;;;27.20;45.60;;;;;;5065250;28;20048;-82
2022/08/11 09:48:43;;;;;;;2.47;0.25;;;26.80;45.20;;;;;;5050972;28;20048;-85
2022/08/11 09:51:11;;;;;;;0.88;0.17;;;26.20;45.90;;;;;;5061869;28;20132;-85
2022/08/11 09:53:43;;;;;;;1.42;0.20;;;26.10;47.40;;;;;;5038797;28;20072;-83
2022/08/11 09:59:19;;;;;;;0.63;0.10;;;25.80;47.30;;;;;;5054412;28;20112;-85
2022/08/11 10:01:51;;;;;;;1.52;0.20;;;26.10;47.20;;;;;;5058022;28;20052;-85
2022/08/11 10:04:33;;;;;;;0.40;0.20;;;25.90;46.60;;;;;;5046916;28;20076;-83
2022/08/11 10:07:09;;;;;;;0.60;0.10;;;25.90;47.10;;;;;;5035148;28;20513;-86
2022/08/11 10:09:51;;;;;;;0.50;0.20;;;25.80;47.20;;;;;;5073948;28;20053;-85
2022/08/11 10:12:26;;;;;;;0.68;0.10;;;25.80;47.20;;;;;;5039800;28;21777;-84
2022/08/11 10:20:36;;;;;;;1.58;0.20;;;25.70;47.00;;;;;;5048476;28;19921;-83
2022/08/11 10:28:37;;;;;;;0.63;0.10;;;26.50;47.20;;;;;;5052343;28;20141;-80
2022/08/11 10:34:27;;;;;;;0.32;0.10;;;26.50;44.80;;;;;;5048998;28;20102;-84
2022/08/11 10:36:57;;;;;;;2.10;0.10;;;26.70;44.90;;;;;;5056330;28;20501;-83
2022/08/11 10:39:26;;;;;;;2.28;0.20;;;26.90;44.90;;;;;;5066373;28;20068;-82
2022/08/11 10:47:33;;;;;;;0.88;0.20;;;27.40;43.70;;;;;;5080136;28;20048;-83
2022/08/11 10:47:57;;;;;;;1.48;0.82;;;27.30;44.80;;;;;;5056619;28;20037;-84
2022/08/11 10:58:49;;;;;;;1.55;0.20;;;26.80;45.20;;;;;;5048118;28;20044;-80
2022/08/11 11:01:21;;;;;;;0.70;0.20;;;26.60;45.20;;;;;;5059196;28;20052;-81
2022/08/11 11:03:51;;;;;;;;;;;26.50;45.30;;;;;;5081152;28;20044;-82
2022/08/11 11:06:53;;;;;;;0.70;0.20;;;26.70;46.90;;;;;;5075474;28;20403;-84
2022/08/11 11:09:56;;;;;;;1.65;0.15;;;27.10;45.80;;;;;;5038327;28;20119;-84
2022/08/11 11:18:20;;;;;;;3.88;0.32;;;26.50;43.50;;;;;;5029234;28;20094;-82
2022/08/11 11:20:56;;;;;;;2.10;0.25;;;26.30;43.60;;;;;;5064267;28;20105;-86
2022/08/11 11:23:32;;;;;;;0.50;0.10;;;26.30;43.50;;;;;;5061958;28;20386;-83
2022/08/11 11:26:24;;;;;;;1.20;0.10;;;26.40;43.90;;;;;;5069639;28;20128;-83
2022/08/11 11:28:56;;;;;;;0.95;0.13;;;26.40;43.60;;;;;;5083273;28;20147;-79
2022/08/11 11:31:42;;;;;;;1.92;0.15;;;26.50;43.70;;;;;;5047821;28;20055;-80
2022/08/11 11:34:52;;;;;;;0.40;0.10;;;26.60;44.00;;;;;;5049854;28;20084;-82
2022/08/11 11:37:22;;;;;;;0.40;0.10;;;26.60;43.80;;;;;;5052919;28;20044;-81
2022/08/11 11:39:51;;;;;;;0.40;0.10;;;26.70;43.10;;;;;;5056417;28;20044;-80
2022/08/11 11:42:20;;;;;;;0.30;0.10;;;27.10;41.60;;;;;;5025078;28;20207;-83
2022/08/11 11:44:48;;;;;;;0.75;0.20;;;27.30;42.40;;;;;;5052499;28;20048;-81
2022/08/11 11:47:21;;;;;;;0.88;0.10;;;27.40;42.00;;;;;;5080175;28;20048;-84
2022/08/11 11:49:49;;;;;;;0.77;0.10;;;27.50;41.30;;;;;;5054011;28;20051;-80
2022/08/11 11:52:19;;;;;;;0.45;0.10;;;27.20;40.50;;;;;;5039970;28;20056;-83
2022/08/11 11:54:49;;;;;;;0.45;0.10;;;27.10;42.20;;;;;;5043302;28;20159;-86
2022/08/11 12:03:02;;;;;;;1.38;0.10;;;27.40;41.60;;;;;;5057649;28;20151;-79
2022/08/11 12:05:36;;;;;;;0.80;0.10;;;27.30;41.10;;;;;;5067099;28;20045;-83
2022/08/11 12:08:38;;;;;;;1.70;0.10;;;27.30;42.00;;;;;;5043861;28;20398;-82
2022/08/11 12:13:52;;;;;;;0.30;0.10;;;27.10;43.10;;;;;;5052740;28;20033;-82
2022/08/11 12:16:22;;;;;;;0.55;0.10;;;27.00;42.80;;;;;;5073498;28;20535;-84
2022/08/11 12:19:07;;;;;;;0.55;0.10;;;27.00;43.40;;;;;;5070285;28;20049;-80
2022/08/11 12:21:36;;;;;;;0.50;0.20;;;26.90;43.20;;;;;;5057094;28;20052;-80
2022/08/11 12:29:50;;;;;;;1.65;0.32;;;27.50;41.90;;;;;;5040197;28;20035;-80
2022/08/11 12:32:25;;;;;;;1.40;0.20;;;27.80;42.10;;;;;;5023644;28;20133;-80
2022/08/11 12:34:55;;;;;;;0.80;0.10;;;27.80;42.00;;;;;;5061482;28;20049;-85
2022/08/11 12:37:35;;;;;;;1.35;0.13;;;27.80;42.10;;;;;;5041594;28;20053;-83
2022/08/11 12:46:18;;;;;;;0.50;0.10;;;27.60;42.80;;;;;;5077964;28;20072;-80
2022/08/11 12:51:58;;;;;;;0.50;0.10;;;27.50;42.70;;;;;;5077769;28;20314;-81
2022/08/11 12:54:46;;;;;;;0.32;0.10;;;27.60;43.20;;;;;;5035187;28;20037;-85
2022/08/11 13:05:46;;;;;;;0.30;0.10;;;26.80;42.80;;;;;;5052238;28;20087;-90
2022/08/11 13:08:15;;;;;;;1.38;0.10;;;26.70;43.10;;;;;;5059481;28;20044;-84
2022/08/11 13:13:31;;;;;;;2.95;0.17;;;26.90;43.00;;;;;;5049552;28;20139;-82
2022/08/11 13:16:21;;;;;;;0.68;0.10;;;26.90;43.10;;;;;;5048187;28;20051;-82
2022/08/11 13:18:50;;;;;;;2.58;0.10;;;26.90;42.80;;;;;;5075427;28;20132;-84
2022/08/11 13:21:21;;;;;;;1.73;0.10;;;26.80;42.80;;;;;;5053895;28;20058;-83
2022/08/11 13:23:53;;;;;;;0.30;0.10;;;26.80;42.60;;;;;;5065199;28;20053;-84
2022/08/11 13:26:34;;;;;;;0.57;0.10;;;26.80;42.70;;;;;;5025489;28;20115;-83
2022/08/11 13:29:18;;;;;;;1.38;0.10;;;26.80;42.80;;;;;;5069435;28;20068;-83
2022/08/11 13:31:47;;;;;;;2.20;0.10;;;26.80;43.60;;;;;;5064173;28;20052;-84
2022/08/11 13:34:19;;;;;;;0.70;0.10;;;26.90;43.10;;;;;;5066748;28;20049;-82
2022/08/11 13:36:53;;;;;;;1.30;0.10;;;27.10;43.30;;;;;;5033302;28;20657;-84
2022/08/11 13:39:26;;;;;;;0.75;0.10;;;27.20;43.20;;;;;;5067703;28;20064;-85
2022/08/11 13:41:56;;;;;;;1.30;0.10;;;27.20;43.00;;;;;;5035592;28;20059;-79
2022/08/11 13:44:26;;;;;;;1.75;0.00;;;27.10;43.70;;;;;;5062082;28;20835;-87
2022/08/11 13:46:59;;;;;;;0.17;0.08;;;27.10;44.10;;;;;;5053674;28;20164;-85
2022/08/11 13:49:29;;;;;;;0.75;0.10;;;27.10;43.50;;;;;;5066295;28;20087;-82
2022/08/11 13:51:58;;;;;;;0.20;0.03;;;27.10;44.70;;;;;;5043017;28;20054;-84
2022/08/11 13:54:32;;;;;;;0.45;0.10;;;27.10;44.40;;;;;;5068069;28;20055;-86
2022/08/11 13:57:04;;;;;;;0.75;0.10;;;27.00;45.10;;;;;;5064746;28;20045;-80
2022/08/11 13:59:36;;;;;;;0.35;0.10;;;27.00;44.30;;;;;;5060472;28;20111;-86
2022/08/11 14:02:26;;;;;;;1.35;0.10;;;27.00;44.50;;;;;;5048736;28;20045;-91
2022/08/11 14:05:06;;;;;;;2.13;0.15;;;26.90;44.10;;;;;;5058505;28;20048;-83
2022/08/11 14:07:48;;;;;;;0.63;0.30;;;26.80;45.10;;;;;;5049628;28;20048;-84
2022/08/11 14:10:19;;;;;;;1.08;0.45;;;26.80;45.60;;;;;;5064303;28;20045;-82
2022/08/11 14:15:47;;;;;;;2.03;0.20;;;26.70;45.90;;;;;;5053018;28;20497;-80
2022/08/11 14:18:21;;;;;;;4.15;0.10;;;26.80;45.80;;;;;;5053466;28;20336;-82
2022/08/11 14:23:41;;;;;;;2.78;0.10;;;26.90;46.20;;;;;;5066527;28;20071;-83
2022/08/11 14:26:22;;;;;;;0.57;0.10;;;26.80;46.60;;;;;;5048005;28;20045;-84
2022/08/11 14:29:07;;;;;;;0.88;0.10;;;26.70;46.60;;;;;;5044817;28;20049;-79
2022/08/11 14:31:43;;;;;;;1.73;0.20;;;26.60;46.60;;;;;;5064428;28;20095;-83
2022/08/11 14:34:13;;;;;;;0.70;0.10;;;26.50;46.70;;;;;;5052525;28;20053;-84
2022/08/11 14:36:50;;;;;;;2.15;0.10;;;26.50;47.50;;;;;;5062930;28;20041;-78
2022/08/11 14:39:21;;;;;;;1.30;0.15;;;26.50;46.80;;;;;;5054973;28;20546;-81
2022/08/11 14:47:34;;;;;;;0.80;0.10;;;26.30;46.40;;;;;;5053797;28;20047;-85
2022/08/11 14:50:02;;;;;;;0.30;0.20;;;26.30;46.50;;;;;;5038653;28;20135;-85
2022/08/11 14:52:37;;;;;;;2.00;0.17;;;26.30;46.80;;;;;;5034874;28;20048;-85
2022/08/11 14:57:55;;;;;;;0.57;0.10;;;26.20;46.90;;;;;;5075535;28;20061;-88
2022/08/11 15:00:24;;;;;;;1.95;0.10;;;26.20;46.60;;;;;;5051481;28;20049;-92
2022/08/11 15:03:11;;;;;;;0.90;0.10;;;26.20;46.70;;;;;;5054881;28;20037;-86
2022/08/11 15:05:49;;;;;;;0.63;0.10;;;26.20;46.70;;;;;;5031985;28;20073;-87
2022/08/11 15:14:10;;;;;;;1.92;0.17;;;26.20;47.40;;;;;;5051297;28;20091;-84
2022/08/11 15:25:29;;;;;;;0.30;0.10;;;26.20;46.60;;;;;;5029886;28;20037;-90
2022/08/11 15:39:28;;;;;;;0.30;0.10;;;26.10;46.50;;;;;;5092917;28;20049;-90
2022/08/11 15:47:56;;;;;;;2.80;0.68;;;26.00;46.80;;;;;;5049099;28;20839;-88
2022/08/11 15:50:37;;;;;;;1.58;0.20;;;25.90;46.80;;;;;;5047615;28;20571;-86
2022/08/11 15:53:16;;;;;;;0.65;0.10;;;25.90;47.10;;;;;;5064149;28;20054;-87
2022/08/11 15:55:46;;;;;;;1.23;0.20;;;25.90;47.30;;;;;;5043484;28;20050;-82
2022/08/11 16:04:11;;;;;;;0.20;0.10;;;25.70;48.50;;;;;;5048736;28;20583;-80
2022/08/11 16:06:52;;;;;;;1.15;0.10;;;25.60;48.90;;;;;;5049055;28;20044;-85
2022/08/11 16:09:28;;;;;;;1.20;0.10;;;25.60;49.60;;;;;;5063616;28;20094;-88
2022/08/11 16:12:21;;;;;;;2.03;0.63;;;25.60;49.30;;;;;;5080423;28;20097;-87
2022/08/11 16:17:43;;;;;;;3.05;0.20;;;25.50;49.60;;;;;;5068271;28;20036;-89
2022/08/11 16:20:19;;;;;;;2.10;0.10;;;25.40;49.40;;;;;;5053881;28;20049;-86
2022/08/11 16:22:50;;;;;;;0.85;0.20;;;25.50;50.00;;;;;;5033528;28;20188;-87
2022/08/11 16:25:29;;;;;;;0.80;0.22;;;25.40;49.80;;;;;;5033473;28;20060;-88
2022/08/11 16:28:19;;;;;;;0.88;0.22;;;25.30;49.80;;;;;;5054648;28;20050;-89
2022/08/11 16:30:48;;;;;;;1.20;0.52;;;25.30;49.50;;;;;;5048443;28;20056;-89
2022/08/11 16:33:16;;;;;;;0.93;0.63;;;25.30;49.60;;;;;;5054261;28;20049;-87
2022/08/11 16:38:56;;;;;;;3.00;0.43;;;25.20;47.60;;;;;;5037939;28;20048;-88
2022/08/11 16:47:12;;;;;;;1.45;0.10;;;25.20;48.90;;;;;;5091708;28;20554;-87
2022/08/11 16:49:52;;;;;;;3.00;0.20;;;25.10;48.50;;;;;;5059942;28;20040;-90
2022/08/11 16:52:22;;;;;;;0.13;0.10;;;25.10;48.40;;;;;;5063169;28;20044;-90
2022/08/11 16:54:49;;;;;;;2.60;0.10;;;25.10;48.80;;;;;;5032263;28;20077;-91
2022/08/11 17:00:15;;;;;;;2.85;0.10;;;25.00;49.10;;;;;;5069009;28;20049;-91
2022/08/11 17:14:51;;;;;;;1.10;0.10;;;24.80;51.10;;;;;;5059753;28;20115;-91
2022/08/11 17:17:38;;;;;;;1.70;0.20;;;24.80;51.30;;;;;;5053741;28;20139;-92
2022/08/11 17:20:11;;;;;;;2.90;0.40;;;24.80;51.80;;;;;;5035201;28;20052;-92
2022/08/11 17:25:48;;;;;;;1.60;0.15;;;24.70;51.40;;;;;;5065221;28;20075;-92
2022/08/11 17:28:31;;;;;;;1.85;0.20;;;24.70;52.00;;;;;;5052046;28;20056;-91
2022/08/11 17:36:38;;;;;;;2.03;0.20;;;24.60;51.60;;;;;;5057924;28;20037;-92
2022/08/11 17:39:12;;;;;;;2.42;0.20;;;24.60;51.20;;;;;;5057485;28;20053;-89
2022/08/11 17:50:19;;;;;;;0.88;0.20;;;24.40;52.30;;;;;;5041734;28;20052;-87
2022/08/11 18:01:12;;;;;;;1.00;0.10;;;24.10;52.70;;;;;;5062156;28;20040;-83
2022/08/11 18:03:41;;;;;;;2.40;0.13;;;24.10;52.70;;;;;;5048398;28;20078;-84
2022/08/11 18:06:27;;;;;;;1.85;0.20;;;24.00;52.80;;;;;;5037341;28;20041;-88
